sensor_id;sensor_type;location;lat;lon;timestamp;P1;durP1;ratioP1;P2;durP2;ratioP2
25948;SDS011;13961;51.178;4.448;2023-04-01T00:01:00;3.58;;;1.80;;
25948;SDS011;13961;51.178;4.448;2023-04-01T00:03:28;8.13;;;2.03;;
25948;SDS011;13961;51.178;4.448;2023-04-01T00:05:54;5.78;;;2.50;;
25948;SDS011;13961;51.178;4.448;2023-04-01T00:08:22;5.97;;;2.70;;
25948;SDS011;13961;51.178;4.448;2023-04-01T00:10:49;7.50;;;2.55;;
25948;SDS011;13961;51.178;4.448;2023-04-01T00:13:15;6.00;;;2.30;;
25948;SDS011;13961;51.178;4.448;2023-04-01T00:15:41;6.40;;;2.47;;
25948;SDS011;13961;51.178;4.448;2023-04-01T00:18:08;7.13;;;2.33;;
25948;SDS011;13961;51.178;4.448;2023-04-01T00:20:33;6.75;;;2.80;;
25948;SDS011;13961;51.178;4.448;2023-04-01T00:22:59;5.35;;;2.40;;
25948;SDS011;13961;51.178;4.448;2023-04-01T00:25:25;6.32;;;3.13;;
25948;SDS011;13961;51.178;4.448;2023-04-01T00:27:51;10.90;;;3.00;;
25948;SDS011;13961;51.178;4.448;2023-04-01T00:30:17;6.60;;;3.47;;
25948;SDS011;13961;51.178;4.448;2023-04-01T00:32:43;6.40;;;3.15;;
25948;SDS011;13961;51.178;4.448;2023-04-01T00:35:08;6.65;;;2.75;;
25948;SDS011;13961;51.178;4.448;2023-04-01T00:37:35;10.88;;;4.00;;
25948;SDS011;13961;51.178;4.448;2023-04-01T00:40:02;12.43;;;4.25;;
25948;SDS011;13961;51.178;4.448;2023-04-01T00:42:30;8.65;;;3.65;;
25948;SDS011;13961;51.178;4.448;2023-04-01T00:44:56;7.25;;;3.35;;
25948;SDS011;13961;51.178;4.448;2023-04-01T00:47:22;7.95;;;4.03;;
25948;SDS011;13961;51.178;4.448;2023-04-01T00:49:51;6.63;;;3.70;;
25948;SDS011;13961;51.178;4.448;2023-04-01T00:52:20;9.95;;;4.22;;
25948;SDS011;13961;51.178;4.448;2023-04-01T00:54:52;8.13;;;4.47;;
25948;SDS011;13961;51.178;4.448;2023-04-01T00:57:24;12.18;;;5.57;;
25948;SDS011;13961;51.178;4.448;2023-04-01T00:59:57;10.98;;;5.53;;
25948;SDS011;13961;51.178;4.448;2023-04-01T01:02:24;11.15;;;5.78;;
25948;SDS011;13961;51.178;4.448;2023-04-01T01:04:50;12.75;;;5.28;;
25948;SDS011;13961;51.178;4.448;2023-04-01T01:07:21;9.85;;;5.20;;
25948;SDS011;13961;51.178;4.448;2023-04-01T01:09:52;14.18;;;6.32;;
25948;SDS011;13961;51.178;4.448;2023-04-01T01:17:48;13.15;;;6.03;;
25948;SDS011;13961;51.178;4.448;2023-04-01T01:25:50;15.70;;;7.30;;
25948;SDS011;13961;51.178;4.448;2023-04-01T01:36:28;17.65;;;7.05;;
25948;SDS011;13961;51.178;4.448;2023-04-01T01:39:01;15.15;;;7.70;;
25948;SDS011;13961;51.178;4.448;2023-04-01T01:41:30;15.65;;;7.28;;
25948;SDS011;13961;51.178;4.448;2023-04-01T01:43:58;14.77;;;5.97;;
25948;SDS011;13961;51.178;4.448;2023-04-01T01:46:26;10.63;;;4.60;;
25948;SDS011;13961;51.178;4.448;2023-04-01T01:48:55;9.10;;;4.70;;
25948;SDS011;13961;51.178;4.448;2023-04-01T01:51:22;7.82;;;3.35;;
25948;SDS011;13961;51.178;4.448;2023-04-01T01:53:48;8.88;;;3.80;;
25948;SDS011;13961;51.178;4.448;2023-04-01T01:56:16;9.45;;;4.28;;
25948;SDS011;13961;51.178;4.448;2023-04-01T01:58:45;9.38;;;3.70;;
25948;SDS011;13961;51.178;4.448;2023-04-01T02:01:24;12.13;;;4.78;;
25948;SDS011;13961;51.178;4.448;2023-04-01T02:03:52;10.18;;;4.53;;
25948;SDS011;13961;51.178;4.448;2023-04-01T02:06:21;9.02;;;4.55;;
25948;SDS011;13961;51.178;4.448;2023-04-01T02:08:55;10.57;;;5.32;;
25948;SDS011;13961;51.178;4.448;2023-04-01T02:11:32;9.15;;;5.57;;
25948;SDS011;13961;51.178;4.448;2023-04-01T02:14:03;13.32;;;6.40;;
25948;SDS011;13961;51.178;4.448;2023-04-01T02:19:46;10.43;;;6.22;;
25948;SDS011;13961;51.178;4.448;2023-04-01T02:22:19;9.25;;;5.57;;
25948;SDS011;13961;51.178;4.448;2023-04-01T02:24:49;9.48;;;5.82;;
25948;SDS011;13961;51.178;4.448;2023-04-01T02:27:17;11.27;;;6.30;;
25948;SDS011;13961;51.178;4.448;2023-04-01T02:29:44;9.73;;;5.80;;
25948;SDS011;13961;51.178;4.448;2023-04-01T02:32:10;9.52;;;5.63;;
25948;SDS011;13961;51.178;4.448;2023-04-01T02:34:38;6.70;;;4.47;;
25948;SDS011;13961;51.178;4.448;2023-04-01T02:37:04;10.35;;;5.25;;
25948;SDS011;13961;51.178;4.448;2023-04-01T02:39:30;9.55;;;5.82;;
25948;SDS011;13961;51.178;4.448;2023-04-01T02:41:56;7.70;;;4.65;;
25948;SDS011;13961;51.178;4.448;2023-04-01T02:44:21;9.20;;;4.50;;
25948;SDS011;13961;51.178;4.448;2023-04-01T02:46:47;8.45;;;4.72;;
25948;SDS011;13961;51.178;4.448;2023-04-01T02:49:13;11.73;;;5.18;;
25948;SDS011;13961;51.178;4.448;2023-04-01T02:51:38;7.45;;;4.60;;
25948;SDS011;13961;51.178;4.448;2023-04-01T02:54:04;5.75;;;4.47;;
25948;SDS011;13961;51.178;4.448;2023-04-01T02:56:30;7.57;;;4.07;;
25948;SDS011;13961;51.178;4.448;2023-04-01T02:58:57;5.95;;;3.75;;
25948;SDS011;13961;51.178;4.448;2023-04-01T03:01:22;7.57;;;3.55;;
25948;SDS011;13961;51.178;4.448;2023-04-01T03:03:48;8.23;;;3.63;;
25948;SDS011;13961;51.178;4.448;2023-04-01T03:06:15;2.75;;;2.35;;
25948;SDS011;13961;51.178;4.448;2023-04-01T03:08:41;7.18;;;3.20;;
25948;SDS011;13961;51.178;4.448;2023-04-01T03:11:08;2.38;;;2.03;;
25948;SDS011;13961;51.178;4.448;2023-04-01T03:13:35;4.75;;;3.30;;
25948;SDS011;13961;51.178;4.448;2023-04-01T03:16:01;7.43;;;3.17;;
25948;SDS011;13961;51.178;4.448;2023-04-01T03:18:27;7.32;;;3.70;;
25948;SDS011;13961;51.178;4.448;2023-04-01T03:20:53;8.82;;;4.35;;
25948;SDS011;13961;51.178;4.448;2023-04-01T03:23:19;7.18;;;3.83;;
25948;SDS011;13961;51.178;4.448;2023-04-01T03:25:46;10.70;;;5.18;;
25948;SDS011;13961;51.178;4.448;2023-04-01T03:28:13;11.27;;;5.32;;
25948;SDS011;13961;51.178;4.448;2023-04-01T03:30:39;10.85;;;4.97;;
25948;SDS011;13961;51.178;4.448;2023-04-01T03:33:05;9.93;;;5.22;;
25948;SDS011;13961;51.178;4.448;2023-04-01T03:35:31;9.43;;;5.07;;
25948;SDS011;13961;51.178;4.448;2023-04-01T03:37:57;10.75;;;5.70;;
25948;SDS011;13961;51.178;4.448;2023-04-01T03:40:24;9.13;;;5.05;;
25948;SDS011;13961;51.178;4.448;2023-04-01T03:42:51;10.68;;;5.47;;
25948;SDS011;13961;51.178;4.448;2023-04-01T03:45:18;8.18;;;5.40;;
25948;SDS011;13961;51.178;4.448;2023-04-01T03:47:45;11.60;;;5.57;;
25948;SDS011;13961;51.178;4.448;2023-04-01T03:50:10;8.88;;;5.25;;
25948;SDS011;13961;51.178;4.448;2023-04-01T03:52:36;10.40;;;4.72;;
25948;SDS011;13961;51.178;4.448;2023-04-01T03:55:02;10.98;;;5.00;;
25948;SDS011;13961;51.178;4.448;2023-04-01T03:57:30;12.73;;;4.90;;
25948;SDS011;13961;51.178;4.448;2023-04-01T03:59:56;8.07;;;5.00;;
25948;SDS011;13961;51.178;4.448;2023-04-01T04:02:22;10.93;;;5.28;;
25948;SDS011;13961;51.178;4.448;2023-04-01T04:04:47;9.65;;;5.20;;
25948;SDS011;13961;51.178;4.448;2023-04-01T04:07:14;12.95;;;5.65;;
25948;SDS011;13961;51.178;4.448;2023-04-01T04:09:40;10.77;;;5.95;;
25948;SDS011;13961;51.178;4.448;2023-04-01T04:12:06;11.02;;;5.78;;
25948;SDS011;13961;51.178;4.448;2023-04-01T04:14:31;10.75;;;5.60;;
25948;SDS011;13961;51.178;4.448;2023-04-01T04:16:57;11.55;;;6.45;;
25948;SDS011;13961;51.178;4.448;2023-04-01T04:19:23;14.05;;;7.18;;
25948;SDS011;13961;51.178;4.448;2023-04-01T04:21:48;13.00;;;6.60;;
25948;SDS011;13961;51.178;4.448;2023-04-01T04:24:14;12.63;;;5.40;;
25948;SDS011;13961;51.178;4.448;2023-04-01T04:26:40;11.65;;;6.35;;
25948;SDS011;13961;51.178;4.448;2023-04-01T04:29:06;10.65;;;6.07;;
25948;SDS011;13961;51.178;4.448;2023-04-01T04:31:32;14.48;;;5.70;;
25948;SDS011;13961;51.178;4.448;2023-04-01T04:33:59;11.75;;;6.15;;
25948;SDS011;13961;51.178;4.448;2023-04-01T04:36:26;8.65;;;5.45;;
25948;SDS011;13961;51.178;4.448;2023-04-01T04:38:52;11.02;;;5.78;;
25948;SDS011;13961;51.178;4.448;2023-04-01T04:41:18;10.65;;;5.22;;
25948;SDS011;13961;51.178;4.448;2023-04-01T04:43:53;9.90;;;5.53;;
25948;SDS011;13961;51.178;4.448;2023-04-01T04:46:20;9.35;;;3.70;;
25948;SDS011;13961;51.178;4.448;2023-04-01T04:48:48;13.23;;;5.72;;
25948;SDS011;13961;51.178;4.448;2023-04-01T04:51:20;10.88;;;5.75;;
25948;SDS011;13961;51.178;4.448;2023-04-01T04:53:48;10.38;;;6.03;;
25948;SDS011;13961;51.178;4.448;2023-04-01T04:56:20;10.07;;;6.03;;
25948;SDS011;13961;51.178;4.448;2023-04-01T04:58:52;12.10;;;6.65;;
25948;SDS011;13961;51.178;4.448;2023-04-01T05:01:23;12.82;;;7.10;;
25948;SDS011;13961;51.178;4.448;2023-04-01T05:03:49;14.05;;;7.80;;
25948;SDS011;13961;51.178;4.448;2023-04-01T05:06:15;15.20;;;7.13;;
25948;SDS011;13961;51.178;4.448;2023-04-01T05:08:42;10.52;;;6.53;;
25948;SDS011;13961;51.178;4.448;2023-04-01T05:11:09;10.38;;;7.03;;
25948;SDS011;13961;51.178;4.448;2023-04-01T05:13:38;13.77;;;6.30;;
25948;SDS011;13961;51.178;4.448;2023-04-01T05:16:07;8.82;;;5.85;;
25948;SDS011;13961;51.178;4.448;2023-04-01T05:18:34;9.18;;;5.68;;
25948;SDS011;13961;51.178;4.448;2023-04-01T05:21:00;8.20;;;5.30;;
25948;SDS011;13961;51.178;4.448;2023-04-01T05:23:30;9.88;;;5.80;;
25948;SDS011;13961;51.178;4.448;2023-04-01T05:25:56;11.23;;;5.93;;
25948;SDS011;13961;51.178;4.448;2023-04-01T05:28:24;8.32;;;6.07;;
25948;SDS011;13961;51.178;4.448;2023-04-01T05:30:51;13.70;;;7.25;;
25948;SDS011;13961;51.178;4.448;2023-04-01T05:33:18;8.95;;;5.90;;
25948;SDS011;13961;51.178;4.448;2023-04-01T05:35:44;10.43;;;6.38;;
25948;SDS011;13961;51.178;4.448;2023-04-01T05:38:12;10.85;;;6.75;;
25948;SDS011;13961;51.178;4.448;2023-04-01T05:40:39;10.98;;;6.75;;
25948;SDS011;13961;51.178;4.448;2023-04-01T05:43:05;13.55;;;7.40;;
25948;SDS011;13961;51.178;4.448;2023-04-01T05:45:31;10.55;;;6.78;;
25948;SDS011;13961;51.178;4.448;2023-04-01T05:47:57;13.13;;;7.47;;
25948;SDS011;13961;51.178;4.448;2023-04-01T05:50:26;10.57;;;6.40;;
25948;SDS011;13961;51.178;4.448;2023-04-01T05:55:23;12.82;;;6.20;;
25948;SDS011;13961;51.178;4.448;2023-04-01T06:00:21;9.18;;;4.75;;
25948;SDS011;13961;51.178;4.448;2023-04-01T06:02:46;7.35;;;5.05;;
25948;SDS011;13961;51.178;4.448;2023-04-01T06:05:17;10.98;;;5.55;;
25948;SDS011;13961;51.178;4.448;2023-04-01T06:07:45;12.32;;;7.38;;
25948;SDS011;13961;51.178;4.448;2023-04-01T06:10:16;11.52;;;6.13;;
25948;SDS011;13961;51.178;4.448;2023-04-01T06:12:45;10.65;;;5.30;;
25948;SDS011;13961;51.178;4.448;2023-04-01T06:15:25;10.68;;;6.03;;
25948;SDS011;13961;51.178;4.448;2023-04-01T06:18:10;11.25;;;7.43;;
25948;SDS011;13961;51.178;4.448;2023-04-01T06:20:47;14.27;;;8.80;;
25948;SDS011;13961;51.178;4.448;2023-04-01T06:24:05;14.27;;;9.05;;
25948;SDS011;13961;51.178;4.448;2023-04-01T06:26:47;10.68;;;6.70;;
25948;SDS011;13961;51.178;4.448;2023-04-01T06:32:19;8.88;;;5.30;;
25948;SDS011;13961;51.178;4.448;2023-04-01T06:43:10;10.55;;;7.05;;
25948;SDS011;13961;51.178;4.448;2023-04-01T06:48:33;14.80;;;8.93;;
25948;SDS011;13961;51.178;4.448;2023-04-01T06:51:26;9.05;;;5.95;;
25948;SDS011;13961;51.178;4.448;2023-04-01T06:56:39;7.88;;;5.55;;
25948;SDS011;13961;51.178;4.448;2023-04-01T06:59:15;8.98;;;5.78;;
25948;SDS011;13961;51.178;4.448;2023-04-01T07:02:01;7.93;;;5.70;;
25948;SDS011;13961;51.178;4.448;2023-04-01T07:05:00;6.43;;;4.43;;
25948;SDS011;13961;51.178;4.448;2023-04-01T07:07:38;8.18;;;5.63;;
25948;SDS011;13961;51.178;4.448;2023-04-01T07:10:20;5.57;;;4.40;;
25948;SDS011;13961;51.178;4.448;2023-04-01T07:12:58;7.03;;;3.47;;
25948;SDS011;13961;51.178;4.448;2023-04-01T07:15:28;4.80;;;3.40;;
25948;SDS011;13961;51.178;4.448;2023-04-01T07:18:02;5.68;;;4.13;;
25948;SDS011;13961;51.178;4.448;2023-04-01T07:20:35;6.90;;;4.40;;
25948;SDS011;13961;51.178;4.448;2023-04-01T07:23:02;7.90;;;4.30;;
25948;SDS011;13961;51.178;4.448;2023-04-01T07:25:39;5.60;;;3.95;;
25948;SDS011;13961;51.178;4.448;2023-04-01T07:28:14;4.63;;;3.20;;
25948;SDS011;13961;51.178;4.448;2023-04-01T07:30:48;5.30;;;3.15;;
25948;SDS011;13961;51.178;4.448;2023-04-01T07:36:10;5.55;;;3.63;;
25948;SDS011;13961;51.178;4.448;2023-04-01T07:38:54;3.75;;;3.30;;
25948;SDS011;13961;51.178;4.448;2023-04-01T07:49:55;4.55;;;3.40;;
25948;SDS011;13961;51.178;4.448;2023-04-01T07:55:33;6.43;;;4.05;;
25948;SDS011;13961;51.178;4.448;2023-04-01T08:06:19;4.75;;;3.22;;
25948;SDS011;13961;51.178;4.448;2023-04-01T08:08:57;5.43;;;3.60;;
25948;SDS011;13961;51.178;4.448;2023-04-01T08:14:21;3.33;;;2.78;;
25948;SDS011;13961;51.178;4.448;2023-04-01T08:17:14;3.85;;;2.63;;
25948;SDS011;13961;51.178;4.448;2023-04-01T08:20:01;5.75;;;3.55;;
25948;SDS011;13961;51.178;4.448;2023-04-01T08:22:42;3.58;;;3.17;;
25948;SDS011;13961;51.178;4.448;2023-04-01T08:25:28;5.55;;;3.10;;
25948;SDS011;13961;51.178;4.448;2023-04-01T08:28:09;6.10;;;3.65;;
25948;SDS011;13961;51.178;4.448;2023-04-01T08:35:46;4.93;;;3.60;;
25948;SDS011;13961;51.178;4.448;2023-04-01T08:38:46;5.28;;;3.83;;
25948;SDS011;13961;51.178;4.448;2023-04-01T08:41:20;4.03;;;3.63;;
25948;SDS011;13961;51.178;4.448;2023-04-01T08:44:09;4.40;;;3.55;;
25948;SDS011;13961;51.178;4.448;2023-04-01T08:52:36;4.57;;;3.08;;
25948;SDS011;13961;51.178;4.448;2023-04-01T09:06:31;4.25;;;2.90;;
25948;SDS011;13961;51.178;4.448;2023-04-01T09:09:20;2.50;;;2.10;;
25948;SDS011;13961;51.178;4.448;2023-04-01T09:23:00;1.67;;;1.15;;
25948;SDS011;13961;51.178;4.448;2023-04-01T09:25:38;3.80;;;2.33;;
25948;SDS011;13961;51.178;4.448;2023-04-01T09:31:06;2.95;;;1.95;;
25948;SDS011;13961;51.178;4.448;2023-04-01T09:33:43;3.13;;;1.83;;
25948;SDS011;13961;51.178;4.448;2023-04-01T09:39:18;1.70;;;1.60;;
25948;SDS011;13961;51.178;4.448;2023-04-01T09:44:59;1.83;;;1.48;;
25948;SDS011;13961;51.178;4.448;2023-04-01T09:51:05;2.95;;;1.70;;
25948;SDS011;13961;51.178;4.448;2023-04-01T09:56:45;1.60;;;1.50;;
25948;SDS011;13961;51.178;4.448;2023-04-01T10:10:47;6.93;;;1.80;;
25948;SDS011;13961;51.178;4.448;2023-04-01T10:27:24;2.20;;;1.90;;
25948;SDS011;13961;51.178;4.448;2023-04-01T11:25:11;5.80;;;2.13;;
25948;SDS011;13961;51.178;4.448;2023-04-01T11:30:58;5.72;;;2.13;;
25948;SDS011;13961;51.178;4.448;2023-04-01T11:36:30;5.60;;;2.08;;
25948;SDS011;13961;51.178;4.448;2023-04-01T11:41:58;3.38;;;2.13;;
25948;SDS011;13961;51.178;4.448;2023-04-01T11:44:27;3.17;;;1.90;;
25948;SDS011;13961;51.178;4.448;2023-04-01T12:01:17;4.57;;;1.60;;
25948;SDS011;13961;51.178;4.448;2023-04-01T12:06:58;3.63;;;1.83;;
25948;SDS011;13961;51.178;4.448;2023-04-01T12:10:20;1.40;;;1.23;;
25948;SDS011;13961;51.178;4.448;2023-04-01T12:13:23;6.47;;;2.10;;
25948;SDS011;13961;51.178;4.448;2023-04-01T12:21:24;3.10;;;2.22;;
25948;SDS011;13961;51.178;4.448;2023-04-01T12:24:09;5.30;;;2.33;;
25948;SDS011;13961;51.178;4.448;2023-04-01T12:32:17;4.53;;;2.40;;
25948;SDS011;13961;51.178;4.448;2023-04-01T12:40:51;1.83;;;1.40;;
25948;SDS011;13961;51.178;4.448;2023-04-01T12:44:02;4.32;;;1.55;;
25948;SDS011;13961;51.178;4.448;2023-04-01T12:55:46;2.50;;;1.77;;
25948;SDS011;13961;51.178;4.448;2023-04-01T13:01:02;2.58;;;1.70;;
25948;SDS011;13961;51.178;4.448;2023-04-01T13:06:31;2.40;;;1.88;;
25948;SDS011;13961;51.178;4.448;2023-04-01T13:14:13;2.90;;;1.80;;
25948;SDS011;13961;51.178;4.448;2023-04-01T13:16:46;3.47;;;2.80;;
25948;SDS011;13961;51.178;4.448;2023-04-01T13:19:43;3.35;;;2.42;;
25948;SDS011;13961;51.178;4.448;2023-04-01T13:30:47;5.75;;;3.90;;
25948;SDS011;13961;51.178;4.448;2023-04-01T13:44:22;6.60;;;3.90;;
25948;SDS011;13961;51.178;4.448;2023-04-01T13:49:45;5.40;;;3.28;;
25948;SDS011;13961;51.178;4.448;2023-04-01T14:19:26;1.80;;;1.55;;
25948;SDS011;13961;51.178;4.448;2023-04-01T14:22:20;1.98;;;1.80;;
25948;SDS011;13961;51.178;4.448;2023-04-01T14:27:41;2.30;;;2.10;;
25948;SDS011;13961;51.178;4.448;2023-04-01T14:33:20;2.92;;;2.33;;
25948;SDS011;13961;51.178;4.448;2023-04-01T14:36:18;3.88;;;2.53;;
25948;SDS011;13961;51.178;4.448;2023-04-01T14:45:20;4.07;;;2.35;;
25948;SDS011;13961;51.178;4.448;2023-04-01T14:50:57;4.55;;;3.05;;
25948;SDS011;13961;51.178;4.448;2023-04-01T14:53:35;3.05;;;2.40;;
25948;SDS011;13961;51.178;4.448;2023-04-01T14:56:03;2.53;;;2.05;;
25948;SDS011;13961;51.178;4.448;2023-04-01T14:58:45;2.13;;;1.90;;
25948;SDS011;13961;51.178;4.448;2023-04-01T15:07:17;4.85;;;2.80;;
25948;SDS011;13961;51.178;4.448;2023-04-01T15:18:07;5.05;;;2.63;;
25948;SDS011;13961;51.178;4.448;2023-04-01T15:21:06;1.52;;;1.42;;
25948;SDS011;13961;51.178;4.448;2023-04-01T15:26:47;3.40;;;1.52;;
25948;SDS011;13961;51.178;4.448;2023-04-01T15:31:50;5.43;;;2.10;;
25948;SDS011;13961;51.178;4.448;2023-04-01T15:37:55;5.00;;;2.30;;
25948;SDS011;13961;51.178;4.448;2023-04-01T15:43:42;2.95;;;2.38;;
25948;SDS011;13961;51.178;4.448;2023-04-01T15:51:54;2.30;;;1.60;;
25948;SDS011;13961;51.178;4.448;2023-04-01T16:05:55;2.85;;;1.60;;
25948;SDS011;13961;51.178;4.448;2023-04-01T16:08:37;2.53;;;2.00;;
25948;SDS011;13961;51.178;4.448;2023-04-01T16:16:48;2.42;;;1.90;;
25948;SDS011;13961;51.178;4.448;2023-04-01T16:19:31;2.60;;;2.25;;
25948;SDS011;13961;51.178;4.448;2023-04-01T16:22:25;2.88;;;2.42;;
25948;SDS011;13961;51.178;4.448;2023-04-01T16:25:14;4.30;;;2.88;;
25948;SDS011;13961;51.178;4.448;2023-04-01T16:30:57;5.30;;;3.22;;
25948;SDS011;13961;51.178;4.448;2023-04-01T16:39:27;5.80;;;3.35;;
25948;SDS011;13961;51.178;4.448;2023-04-01T16:44:32;3.65;;;3.05;;
25948;SDS011;13961;51.178;4.448;2023-04-01T16:47:22;3.25;;;2.88;;
25948;SDS011;13961;51.178;4.448;2023-04-01T16:52:47;7.55;;;3.30;;
25948;SDS011;13961;51.178;4.448;2023-04-01T16:55:33;5.63;;;3.10;;
25948;SDS011;13961;51.178;4.448;2023-04-01T16:58:07;6.18;;;4.50;;
25948;SDS011;13961;51.178;4.448;2023-04-01T17:00:39;4.00;;;3.03;;
25948;SDS011;13961;51.178;4.448;2023-04-01T17:03:16;5.93;;;3.13;;
25948;SDS011;13961;51.178;4.448;2023-04-01T17:22:25;3.83;;;2.40;;
25948;SDS011;13961;51.178;4.448;2023-04-01T17:33:10;5.63;;;2.10;;
25948;SDS011;13961;51.178;4.448;2023-04-01T17:38:50;4.75;;;2.08;;
25948;SDS011;13961;51.178;4.448;2023-04-01T17:47:07;6.70;;;3.63;;
25948;SDS011;13961;51.178;4.448;2023-04-01T17:49:51;9.90;;;4.28;;
25948;SDS011;13961;51.178;4.448;2023-04-01T18:01:00;11.18;;;5.40;;
25948;SDS011;13961;51.178;4.448;2023-04-01T18:06:10;13.85;;;6.07;;
25948;SDS011;13961;51.178;4.448;2023-04-01T18:14:13;17.00;;;7.50;;
25948;SDS011;13961;51.178;4.448;2023-04-01T18:22:36;20.00;;;7.10;;
25948;SDS011;13961;51.178;4.448;2023-04-01T18:27:40;20.58;;;7.80;;
25948;SDS011;13961;51.178;4.448;2023-04-01T18:30:18;18.02;;;8.45;;
25948;SDS011;13961;51.178;4.448;2023-04-01T18:32:53;24.85;;;9.30;;
25948;SDS011;13961;51.178;4.448;2023-04-01T18:38:13;15.80;;;7.45;;
25948;SDS011;13961;51.178;4.448;2023-04-01T18:40:43;28.67;;;9.48;;
25948;SDS011;13961;51.178;4.448;2023-04-01T18:46:19;19.67;;;8.75;;
25948;SDS011;13961;51.178;4.448;2023-04-01T18:51:55;15.60;;;7.78;;
25948;SDS011;13961;51.178;4.448;2023-04-01T18:54:29;16.95;;;7.40;;
25948;SDS011;13961;51.178;4.448;2023-04-01T18:57:13;18.88;;;6.93;;
25948;SDS011;13961;51.178;4.448;2023-04-01T18:59:50;18.25;;;9.07;;
25948;SDS011;13961;51.178;4.448;2023-04-01T19:02:31;28.15;;;10.32;;
25948;SDS011;13961;51.178;4.448;2023-04-01T19:05:35;25.75;;;11.25;;
25948;SDS011;13961;51.178;4.448;2023-04-01T19:11:20;27.58;;;10.68;;
25948;SDS011;13961;51.178;4.448;2023-04-01T19:17:24;29.58;;;12.15;;
25948;SDS011;13961;51.178;4.448;2023-04-01T19:31:08;28.88;;;13.15;;
25948;SDS011;13961;51.178;4.448;2023-04-01T19:36:59;24.55;;;12.63;;
25948;SDS011;13961;51.178;4.448;2023-04-01T19:50:46;22.13;;;11.93;;
25948;SDS011;13961;51.178;4.448;2023-04-01T19:53:52;31.10;;;12.98;;
25948;SDS011;13961;51.178;4.448;2023-04-01T20:04:36;25.75;;;12.38;;
25948;SDS011;13961;51.178;4.448;2023-04-01T20:07:14;25.27;;;11.90;;
25948;SDS011;13961;51.178;4.448;2023-04-01T20:09:50;23.75;;;12.02;;
25948;SDS011;13961;51.178;4.448;2023-04-01T20:15:33;20.35;;;11.02;;
25948;SDS011;13961;51.178;4.448;2023-04-01T20:18:05;25.20;;;11.20;;
25948;SDS011;13961;51.178;4.448;2023-04-01T20:24:17;21.48;;;10.25;;
25948;SDS011;13961;51.178;4.448;2023-04-01T20:26:50;17.83;;;8.55;;
25948;SDS011;13961;51.178;4.448;2023-04-01T20:40:37;11.13;;;6.82;;
25948;SDS011;13961;51.178;4.448;2023-04-01T20:45:58;10.63;;;7.30;;
25948;SDS011;13961;51.178;4.448;2023-04-01T20:51:13;11.23;;;6.97;;
25948;SDS011;13961;51.178;4.448;2023-04-01T21:10:20;11.38;;;6.43;;
25948;SDS011;13961;51.178;4.448;2023-04-01T21:13:15;10.23;;;6.28;;
25948;SDS011;13961;51.178;4.448;2023-04-01T21:16:10;10.50;;;6.50;;
25948;SDS011;13961;51.178;4.448;2023-04-01T21:25:01;12.30;;;7.57;;
25948;SDS011;13961;51.178;4.448;2023-04-01T21:28:00;12.45;;;7.65;;
25948;SDS011;13961;51.178;4.448;2023-04-01T21:44:40;19.30;;;9.50;;
25948;SDS011;13961;51.178;4.448;2023-04-01T21:47:30;14.73;;;9.07;;
25948;SDS011;13961;51.178;4.448;2023-04-01T21:56:01;17.73;;;10.98;;
25948;SDS011;13961;51.178;4.448;2023-04-01T22:04:37;23.55;;;12.80;;
25948;SDS011;13961;51.178;4.448;2023-04-01T22:07:17;19.48;;;11.73;;
25948;SDS011;13961;51.178;4.448;2023-04-01T22:09:52;20.35;;;12.15;;
25948;SDS011;13961;51.178;4.448;2023-04-01T22:12:44;19.83;;;10.30;;
25948;SDS011;13961;51.178;4.448;2023-04-01T22:15:22;15.77;;;9.88;;
25948;SDS011;13961;51.178;4.448;2023-04-01T22:26:28;17.67;;;10.55;;
25948;SDS011;13961;51.178;4.448;2023-04-01T22:29:06;21.08;;;11.27;;
25948;SDS011;13961;51.178;4.448;2023-04-01T22:31:47;22.70;;;11.35;;
25948;SDS011;13961;51.178;4.448;2023-04-01T22:36:56;21.40;;;11.90;;
25948;SDS011;13961;51.178;4.448;2023-04-01T22:45:27;22.17;;;13.38;;
25948;SDS011;13961;51.178;4.448;2023-04-01T22:48:14;23.60;;;12.13;;
25948;SDS011;13961;51.178;4.448;2023-04-01T22:50:52;23.33;;;13.32;;
25948;SDS011;13961;51.178;4.448;2023-04-01T22:56:18;28.40;;;13.88;;
25948;SDS011;13961;51.178;4.448;2023-04-01T22:58:55;24.92;;;13.40;;
25948;SDS011;13961;51.178;4.448;2023-04-01T23:01:33;27.02;;;13.77;;
25948;SDS011;13961;51.178;4.448;2023-04-01T23:04:04;23.75;;;13.55;;
25948;SDS011;13961;51.178;4.448;2023-04-01T23:06:36;29.77;;;13.65;;
25948;SDS011;13961;51.178;4.448;2023-04-01T23:09:17;27.45;;;13.98;;
25948;SDS011;13961;51.178;4.448;2023-04-01T23:11:49;27.85;;;14.05;;
25948;SDS011;13961;51.178;4.448;2023-04-01T23:14:41;25.92;;;14.55;;
25948;SDS011;13961;51.178;4.448;2023-04-01T23:33:15;24.20;;;13.13;;
25948;SDS011;13961;51.178;4.448;2023-04-01T23:38:34;18.20;;;10.73;;
25948;SDS011;13961;51.178;4.448;2023-04-01T23:41:06;19.80;;;10.30;;
25948;SDS011;13961;51.178;4.448;2023-04-01T23:43:42;19.88;;;10.88;;
25948;SDS011;13961;51.178;4.448;2023-04-01T23:46:10;21.77;;;11.00;;
25948;SDS011;13961;51.178;4.448;2023-04-01T23:48:39;20.65;;;11.15;;
25948;SDS011;13961;51.178;4.448;2023-04-01T23:51:29;21.50;;;10.55;;
25948;SDS011;13961;51.178;4.448;2023-04-01T23:56:39;18.38;;;10.38;;
25948;SDS011;13961;51.178;4.448;2023-04-01T23:59:15;23.20;;;11.93;;
